sensor_id;sensor_type;location;lat;lon;timestamp;P1;durP1;ratioP1;P2;durP2;ratioP2
43529;SDS011;55654;50.966;6.878;2023-04-24T00:02:25;0.90;;;0.50;;
43529;SDS011;55654;50.966;6.878;2023-04-24T00:04:51;2.07;;;0.73;;
43529;SDS011;55654;50.966;6.878;2023-04-24T00:07:18;1.70;;;1.13;;
43529;SDS011;55654;50.966;6.878;2023-04-24T00:09:46;2.43;;;0.70;;
43529;SDS011;55654;50.966;6.878;2023-04-24T00:12:12;1.73;;;0.60;;
43529;SDS011;55654;50.966;6.878;2023-04-24T00:14:38;1.13;;;0.80;;
43529;SDS011;55654;50.966;6.878;2023-04-24T00:17:06;0.97;;;0.73;;
43529;SDS011;55654;50.966;6.878;2023-04-24T00:19:34;0.90;;;0.53;;
43529;SDS011;55654;50.966;6.878;2023-04-24T00:22:01;2.23;;;0.80;;
43529;SDS011;55654;50.966;6.878;2023-04-24T00:24:32;0.47;;;0.47;;
43529;SDS011;55654;50.966;6.878;2023-04-24T00:27:01;2.43;;;0.87;;
43529;SDS011;55654;50.966;6.878;2023-04-24T00:29:27;1.53;;;0.77;;
43529;SDS011;55654;50.966;6.878;2023-04-24T00:31:53;1.67;;;0.40;;
43529;SDS011;55654;50.966;6.878;2023-04-24T00:34:19;2.20;;;0.63;;
43529;SDS011;55654;50.966;6.878;2023-04-24T00:36:45;2.60;;;0.60;;
43529;SDS011;55654;50.966;6.878;2023-04-24T00:39:13;1.67;;;0.60;;
43529;SDS011;55654;50.966;6.878;2023-04-24T00:41:42;2.87;;;0.90;;
43529;SDS011;55654;50.966;6.878;2023-04-24T00:44:08;2.77;;;0.63;;
43529;SDS011;55654;50.966;6.878;2023-04-24T00:46:36;1.90;;;0.77;;
43529;SDS011;55654;50.966;6.878;2023-04-24T00:49:04;0.87;;;0.60;;
43529;SDS011;55654;50.966;6.878;2023-04-24T00:51:31;1.63;;;0.80;;
43529;SDS011;55654;50.966;6.878;2023-04-24T00:53:59;1.73;;;0.90;;
43529;SDS011;55654;50.966;6.878;2023-04-24T00:56:26;0.93;;;0.70;;
43529;SDS011;55654;50.966;6.878;2023-04-24T00:58:52;1.47;;;0.90;;
43529;SDS011;55654;50.966;6.878;2023-04-24T01:01:19;1.43;;;0.80;;
43529;SDS011;55654;50.966;6.878;2023-04-24T01:03:49;1.37;;;0.50;;
43529;SDS011;55654;50.966;6.878;2023-04-24T01:06:16;4.87;;;1.20;;
43529;SDS011;55654;50.966;6.878;2023-04-24T01:08:42;1.43;;;0.80;;
43529;SDS011;55654;50.966;6.878;2023-04-24T01:11:09;2.37;;;0.80;;
43529;SDS011;55654;50.966;6.878;2023-04-24T01:13:35;3.77;;;1.10;;
43529;SDS011;55654;50.966;6.878;2023-04-24T01:16:01;1.57;;;0.93;;
43529;SDS011;55654;50.966;6.878;2023-04-24T01:18:27;2.10;;;0.80;;
43529;SDS011;55654;50.966;6.878;2023-04-24T01:20:54;2.93;;;1.30;;
43529;SDS011;55654;50.966;6.878;2023-04-24T01:23:22;3.00;;;1.30;;
43529;SDS011;55654;50.966;6.878;2023-04-24T01:25:49;1.20;;;0.97;;
43529;SDS011;55654;50.966;6.878;2023-04-24T01:28:19;2.47;;;1.90;;
43529;SDS011;55654;50.966;6.878;2023-04-24T01:30:47;2.73;;;1.67;;
43529;SDS011;55654;50.966;6.878;2023-04-24T01:33:13;6.47;;;2.53;;
43529;SDS011;55654;50.966;6.878;2023-04-24T01:35:40;3.30;;;2.00;;
43529;SDS011;55654;50.966;6.878;2023-04-24T01:38:06;3.23;;;2.00;;
43529;SDS011;55654;50.966;6.878;2023-04-24T01:40:32;5.87;;;2.47;;
43529;SDS011;55654;50.966;6.878;2023-04-24T01:42:58;4.13;;;2.87;;
43529;SDS011;55654;50.966;6.878;2023-04-24T01:45:24;4.27;;;3.07;;
43529;SDS011;55654;50.966;6.878;2023-04-24T01:47:50;7.57;;;3.30;;
43529;SDS011;55654;50.966;6.878;2023-04-24T01:50:19;6.20;;;2.77;;
43529;SDS011;55654;50.966;6.878;2023-04-24T01:52:45;4.53;;;3.10;;
43529;SDS011;55654;50.966;6.878;2023-04-24T01:55:11;8.40;;;3.87;;
43529;SDS011;55654;50.966;6.878;2023-04-24T01:57:39;6.30;;;3.30;;
43529;SDS011;55654;50.966;6.878;2023-04-24T02:00:10;6.07;;;3.13;;
43529;SDS011;55654;50.966;6.878;2023-04-24T02:02:37;6.37;;;4.07;;
43529;SDS011;55654;50.966;6.878;2023-04-24T02:05:05;7.60;;;4.20;;
43529;SDS011;55654;50.966;6.878;2023-04-24T02:07:32;6.37;;;4.70;;
43529;SDS011;55654;50.966;6.878;2023-04-24T02:10:00;7.10;;;4.73;;
43529;SDS011;55654;50.966;6.878;2023-04-24T02:12:26;8.30;;;5.40;;
43529;SDS011;55654;50.966;6.878;2023-04-24T02:14:54;8.83;;;4.80;;
43529;SDS011;55654;50.966;6.878;2023-04-24T02:17:20;8.03;;;5.23;;
43529;SDS011;55654;50.966;6.878;2023-04-24T02:19:47;10.73;;;6.53;;
43529;SDS011;55654;50.966;6.878;2023-04-24T02:22:13;7.80;;;5.67;;
43529;SDS011;55654;50.966;6.878;2023-04-24T02:24:42;11.97;;;6.50;;
43529;SDS011;55654;50.966;6.878;2023-04-24T02:27:09;12.10;;;6.00;;
43529;SDS011;55654;50.966;6.878;2023-04-24T02:29:35;8.37;;;5.37;;
43529;SDS011;55654;50.966;6.878;2023-04-24T02:32:01;7.33;;;5.13;;
43529;SDS011;55654;50.966;6.878;2023-04-24T02:34:29;9.37;;;5.27;;
43529;SDS011;55654;50.966;6.878;2023-04-24T02:36:55;8.03;;;5.20;;
43529;SDS011;55654;50.966;6.878;2023-04-24T02:39:21;12.07;;;4.90;;
43529;SDS011;55654;50.966;6.878;2023-04-24T02:41:50;7.80;;;4.93;;
43529;SDS011;55654;50.966;6.878;2023-04-24T02:44:16;8.00;;;4.77;;
43529;SDS011;55654;50.966;6.878;2023-04-24T02:46:42;7.30;;;4.50;;
43529;SDS011;55654;50.966;6.878;2023-04-24T02:49:11;7.23;;;4.80;;
43529;SDS011;55654;50.966;6.878;2023-04-24T02:51:39;9.07;;;5.43;;
43529;SDS011;55654;50.966;6.878;2023-04-24T02:54:06;10.13;;;5.17;;
43529;SDS011;55654;50.966;6.878;2023-04-24T02:56:33;7.83;;;5.03;;
43529;SDS011;55654;50.966;6.878;2023-04-24T02:59:02;11.23;;;4.90;;
43529;SDS011;55654;50.966;6.878;2023-04-24T03:01:28;8.70;;;6.60;;
43529;SDS011;55654;50.966;6.878;2023-04-24T03:03:54;11.80;;;6.60;;
43529;SDS011;55654;50.966;6.878;2023-04-24T03:06:23;9.30;;;6.07;;
43529;SDS011;55654;50.966;6.878;2023-04-24T03:08:51;11.70;;;6.00;;
43529;SDS011;55654;50.966;6.878;2023-04-24T03:11:17;8.73;;;6.00;;
43529;SDS011;55654;50.966;6.878;2023-04-24T03:13:44;11.63;;;6.60;;
43529;SDS011;55654;50.966;6.878;2023-04-24T03:16:13;9.37;;;5.67;;
43529;SDS011;55654;50.966;6.878;2023-04-24T03:18:44;11.60;;;7.00;;
43529;SDS011;55654;50.966;6.878;2023-04-24T03:21:13;9.33;;;6.57;;
43529;SDS011;55654;50.966;6.878;2023-04-24T03:23:59;13.40;;;7.07;;
43529;SDS011;55654;50.966;6.878;2023-04-24T03:26:25;12.30;;;6.80;;
43529;SDS011;55654;50.966;6.878;2023-04-24T03:28:51;9.50;;;6.10;;
43529;SDS011;55654;50.966;6.878;2023-04-24T03:31:17;12.97;;;6.80;;
43529;SDS011;55654;50.966;6.878;2023-04-24T03:33:46;17.87;;;7.17;;
43529;SDS011;55654;50.966;6.878;2023-04-24T03:36:12;11.70;;;6.57;;
43529;SDS011;55654;50.966;6.878;2023-04-24T03:38:38;14.30;;;7.27;;
43529;SDS011;55654;50.966;6.878;2023-04-24T03:41:04;8.77;;;6.43;;
43529;SDS011;55654;50.966;6.878;2023-04-24T03:43:30;14.20;;;7.73;;
43529;SDS011;55654;50.966;6.878;2023-04-24T03:45:58;12.37;;;7.20;;
43529;SDS011;55654;50.966;6.878;2023-04-24T03:48:26;10.87;;;7.07;;
43529;SDS011;55654;50.966;6.878;2023-04-24T03:51:00;11.87;;;7.00;;
43529;SDS011;55654;50.966;6.878;2023-04-24T03:53:26;18.67;;;6.70;;
43529;SDS011;55654;50.966;6.878;2023-04-24T03:55:52;11.67;;;6.43;;
43529;SDS011;55654;50.966;6.878;2023-04-24T03:58:18;9.67;;;6.27;;
43529;SDS011;55654;50.966;6.878;2023-04-24T04:00:45;10.77;;;7.03;;
43529;SDS011;55654;50.966;6.878;2023-04-24T04:03:12;16.03;;;6.73;;
43529;SDS011;55654;50.966;6.878;2023-04-24T04:05:41;11.83;;;5.80;;
43529;SDS011;55654;50.966;6.878;2023-04-24T04:08:11;14.00;;;6.57;;
43529;SDS011;55654;50.966;6.878;2023-04-24T04:10:40;12.65;;;6.93;;
43529;SDS011;55654;50.966;6.878;2023-04-24T04:13:06;10.30;;;6.60;;
43529;SDS011;55654;50.966;6.878;2023-04-24T04:15:32;11.60;;;6.37;;
43529;SDS011;55654;50.966;6.878;2023-04-24T04:17:58;13.97;;;8.33;;
43529;SDS011;55654;50.966;6.878;2023-04-24T04:20:24;11.27;;;6.60;;
43529;SDS011;55654;50.966;6.878;2023-04-24T04:22:50;11.63;;;6.73;;
43529;SDS011;55654;50.966;6.878;2023-04-24T04:25:16;10.37;;;6.33;;
43529;SDS011;55654;50.966;6.878;2023-04-24T04:27:45;13.30;;;6.87;;
43529;SDS011;55654;50.966;6.878;2023-04-24T04:30:12;10.87;;;6.60;;
43529;SDS011;55654;50.966;6.878;2023-04-24T04:32:41;11.83;;;6.47;;
43529;SDS011;55654;50.966;6.878;2023-04-24T04:35:09;9.83;;;6.03;;
43529;SDS011;55654;50.966;6.878;2023-04-24T04:37:38;10.73;;;5.80;;
43529;SDS011;55654;50.966;6.878;2023-04-24T04:40:07;10.90;;;5.90;;
43529;SDS011;55654;50.966;6.878;2023-04-24T04:42:36;8.48;;;5.88;;
43529;SDS011;55654;50.966;6.878;2023-04-24T04:45:08;9.60;;;5.47;;
43529;SDS011;55654;50.966;6.878;2023-04-24T04:47:34;16.07;;;5.40;;
43529;SDS011;55654;50.966;6.878;2023-04-24T04:50:00;8.57;;;5.27;;
43529;SDS011;55654;50.966;6.878;2023-04-24T04:52:28;12.63;;;6.50;;
43529;SDS011;55654;50.966;6.878;2023-04-24T04:54:54;8.83;;;5.23;;
43529;SDS011;55654;50.966;6.878;2023-04-24T04:57:20;7.40;;;5.17;;
43529;SDS011;55654;50.966;6.878;2023-04-24T04:59:46;8.60;;;5.07;;
43529;SDS011;55654;50.966;6.878;2023-04-24T05:02:12;9.37;;;5.47;;
43529;SDS011;55654;50.966;6.878;2023-04-24T05:04:38;8.10;;;5.50;;
43529;SDS011;55654;50.966;6.878;2023-04-24T05:07:07;7.37;;;4.83;;
43529;SDS011;55654;50.966;6.878;2023-04-24T05:09:35;11.40;;;5.73;;
43529;SDS011;55654;50.966;6.878;2023-04-24T05:12:03;8.87;;;5.10;;
43529;SDS011;55654;50.966;6.878;2023-04-24T05:14:30;10.27;;;5.33;;
43529;SDS011;55654;50.966;6.878;2023-04-24T05:16:58;11.33;;;5.53;;
43529;SDS011;55654;50.966;6.878;2023-04-24T05:19:26;11.90;;;5.80;;
43529;SDS011;55654;50.966;6.878;2023-04-24T05:21:52;8.67;;;4.80;;
43529;SDS011;55654;50.966;6.878;2023-04-24T05:24:21;11.17;;;5.07;;
43529;SDS011;55654;50.966;6.878;2023-04-24T05:26:49;11.10;;;4.33;;
43529;SDS011;55654;50.966;6.878;2023-04-24T05:29:15;6.23;;;4.63;;
43529;SDS011;55654;50.966;6.878;2023-04-24T05:31:48;7.60;;;4.60;;
43529;SDS011;55654;50.966;6.878;2023-04-24T05:34:17;10.63;;;5.40;;
43529;SDS011;55654;50.966;6.878;2023-04-24T05:36:43;10.00;;;6.20;;
43529;SDS011;55654;50.966;6.878;2023-04-24T05:39:09;13.43;;;6.27;;
43529;SDS011;55654;50.966;6.878;2023-04-24T05:41:40;11.37;;;7.03;;
43529;SDS011;55654;50.966;6.878;2023-04-24T05:44:09;11.03;;;6.87;;
43529;SDS011;55654;50.966;6.878;2023-04-24T05:46:35;8.40;;;6.00;;
43529;SDS011;55654;50.966;6.878;2023-04-24T05:49:03;11.90;;;7.13;;
43529;SDS011;55654;50.966;6.878;2023-04-24T05:51:30;11.53;;;7.20;;
43529;SDS011;55654;50.966;6.878;2023-04-24T05:53:58;12.63;;;6.80;;
43529;SDS011;55654;50.966;6.878;2023-04-24T05:56:29;14.47;;;7.60;;
43529;SDS011;55654;50.966;6.878;2023-04-24T05:59:04;10.47;;;6.77;;
43529;SDS011;55654;50.966;6.878;2023-04-24T06:01:33;6.77;;;4.93;;
43529;SDS011;55654;50.966;6.878;2023-04-24T06:04:01;10.20;;;5.63;;
43529;SDS011;55654;50.966;6.878;2023-04-24T06:06:27;9.50;;;5.20;;
43529;SDS011;55654;50.966;6.878;2023-04-24T06:08:54;9.53;;;5.90;;
43529;SDS011;55654;50.966;6.878;2023-04-24T06:11:23;8.73;;;5.27;;
43529;SDS011;55654;50.966;6.878;2023-04-24T06:13:57;7.97;;;5.37;;
43529;SDS011;55654;50.966;6.878;2023-04-24T06:16:23;6.53;;;3.90;;
43529;SDS011;55654;50.966;6.878;2023-04-24T06:18:59;6.90;;;2.63;;
43529;SDS011;55654;50.966;6.878;2023-04-24T06:21:28;3.10;;;2.40;;
43529;SDS011;55654;50.966;6.878;2023-04-24T06:23:56;3.53;;;2.57;;
43529;SDS011;55654;50.966;6.878;2023-04-24T06:26:23;4.20;;;2.07;;
43529;SDS011;55654;50.966;6.878;2023-04-24T06:28:51;3.17;;;2.70;;
43529;SDS011;55654;50.966;6.878;2023-04-24T06:31:18;4.10;;;2.97;;
43529;SDS011;55654;50.966;6.878;2023-04-24T06:33:48;5.57;;;2.67;;
43529;SDS011;55654;50.966;6.878;2023-04-24T06:36:25;3.45;;;2.70;;
43529;SDS011;55654;50.966;6.878;2023-04-24T06:44:10;4.10;;;2.73;;
43529;SDS011;55654;50.966;6.878;2023-04-24T06:46:51;3.77;;;2.87;;
43529;SDS011;55654;50.966;6.878;2023-04-24T06:49:17;4.73;;;2.47;;
43529;SDS011;55654;50.966;6.878;2023-04-24T06:51:48;6.47;;;2.27;;
43529;SDS011;55654;50.966;6.878;2023-04-24T06:54:21;3.03;;;2.33;;
43529;SDS011;55654;50.966;6.878;2023-04-24T06:56:59;4.13;;;3.03;;
43529;SDS011;55654;50.966;6.878;2023-04-24T06:59:28;4.13;;;2.90;;
43529;SDS011;55654;50.966;6.878;2023-04-24T07:01:56;6.33;;;2.83;;
43529;SDS011;55654;50.966;6.878;2023-04-24T07:07:35;9.27;;;4.13;;
43529;SDS011;55654;50.966;6.878;2023-04-24T07:10:07;8.37;;;4.70;;
43529;SDS011;55654;50.966;6.878;2023-04-24T07:12:36;6.30;;;3.63;;
43529;SDS011;55654;50.966;6.878;2023-04-24T07:15:02;6.50;;;4.10;;
43529;SDS011;55654;50.966;6.878;2023-04-24T07:17:31;10.17;;;4.57;;
43529;SDS011;55654;50.966;6.878;2023-04-24T07:20:13;6.38;;;3.95;;
43529;SDS011;55654;50.966;6.878;2023-04-24T07:22:42;9.20;;;4.60;;
43529;SDS011;55654;50.966;6.878;2023-04-24T07:25:19;6.97;;;4.40;;
43529;SDS011;55654;50.966;6.878;2023-04-24T07:27:47;7.90;;;5.20;;
43529;SDS011;55654;50.966;6.878;2023-04-24T07:30:19;5.80;;;3.00;;
43529;SDS011;55654;50.966;6.878;2023-04-24T07:32:54;2.70;;;2.07;;
43529;SDS011;55654;50.966;6.878;2023-04-24T07:35:28;3.63;;;2.93;;
43529;SDS011;55654;50.966;6.878;2023-04-24T07:37:54;8.52;;;3.85;;
43529;SDS011;55654;50.966;6.878;2023-04-24T07:40:26;5.73;;;3.00;;
43529;SDS011;55654;50.966;6.878;2023-04-24T07:42:54;6.60;;;2.80;;
43529;SDS011;55654;50.966;6.878;2023-04-24T07:45:23;3.07;;;1.80;;
43529;SDS011;55654;50.966;6.878;2023-04-24T07:48:12;1.77;;;1.37;;
43529;SDS011;55654;50.966;6.878;2023-04-24T07:50:41;4.93;;;1.70;;
43529;SDS011;55654;50.966;6.878;2023-04-24T07:53:09;5.87;;;3.27;;
43529;SDS011;55654;50.966;6.878;2023-04-24T07:55:38;5.77;;;1.80;;
43529;SDS011;55654;50.966;6.878;2023-04-24T07:58:04;7.83;;;2.40;;
43529;SDS011;55654;50.966;6.878;2023-04-24T08:00:33;4.83;;;1.93;;
43529;SDS011;55654;50.966;6.878;2023-04-24T08:02:59;3.30;;;1.47;;
43529;SDS011;55654;50.966;6.878;2023-04-24T08:05:32;3.37;;;1.23;;
43529;SDS011;55654;50.966;6.878;2023-04-24T08:08:01;2.30;;;1.53;;
43529;SDS011;55654;50.966;6.878;2023-04-24T08:10:27;2.47;;;1.13;;
43529;SDS011;55654;50.966;6.878;2023-04-24T08:12:55;1.10;;;0.83;;
43529;SDS011;55654;50.966;6.878;2023-04-24T08:15:21;3.40;;;1.90;;
43529;SDS011;55654;50.966;6.878;2023-04-24T08:17:47;5.87;;;2.30;;
43529;SDS011;55654;50.966;6.878;2023-04-24T08:20:17;4.53;;;2.37;;
43529;SDS011;55654;50.966;6.878;2023-04-24T08:22:43;4.47;;;2.70;;
43529;SDS011;55654;50.966;6.878;2023-04-24T08:25:12;2.90;;;2.30;;
43529;SDS011;55654;50.966;6.878;2023-04-24T08:27:38;3.27;;;2.27;;
43529;SDS011;55654;50.966;6.878;2023-04-24T08:30:04;3.93;;;2.10;;
43529;SDS011;55654;50.966;6.878;2023-04-24T08:32:33;3.13;;;1.90;;
43529;SDS011;55654;50.966;6.878;2023-04-24T08:35:02;8.03;;;2.70;;
43529;SDS011;55654;50.966;6.878;2023-04-24T08:37:28;5.00;;;2.20;;
43529;SDS011;55654;50.966;6.878;2023-04-24T08:39:56;6.43;;;1.43;;
43529;SDS011;55654;50.966;6.878;2023-04-24T08:42:22;4.00;;;2.30;;
43529;SDS011;55654;50.966;6.878;2023-04-24T08:44:49;2.93;;;1.80;;
43529;SDS011;55654;50.966;6.878;2023-04-24T08:47:15;4.47;;;2.23;;
43529;SDS011;55654;50.966;6.878;2023-04-24T08:49:41;4.03;;;2.30;;
43529;SDS011;55654;50.966;6.878;2023-04-24T08:52:11;5.43;;;2.87;;
43529;SDS011;55654;50.966;6.878;2023-04-24T08:54:45;4.40;;;3.07;;
43529;SDS011;55654;50.966;6.878;2023-04-24T08:57:11;6.17;;;2.53;;
43529;SDS011;55654;50.966;6.878;2023-04-24T08:59:42;3.77;;;3.10;;
43529;SDS011;55654;50.966;6.878;2023-04-24T09:02:11;7.43;;;4.07;;
43529;SDS011;55654;50.966;6.878;2023-04-24T09:04:43;5.70;;;2.87;;
43529;SDS011;55654;50.966;6.878;2023-04-24T09:07:12;14.23;;;3.92;;
43529;SDS011;55654;50.966;6.878;2023-04-24T09:09:56;8.57;;;4.77;;
43529;SDS011;55654;50.966;6.878;2023-04-24T09:12:22;8.47;;;3.83;;
43529;SDS011;55654;50.966;6.878;2023-04-24T09:14:53;14.90;;;7.17;;
43529;SDS011;55654;50.966;6.878;2023-04-24T09:17:28;16.90;;;8.77;;
43529;SDS011;55654;50.966;6.878;2023-04-24T09:19:55;16.93;;;9.07;;
43529;SDS011;55654;50.966;6.878;2023-04-24T09:22:20;19.67;;;10.07;;
43529;SDS011;55654;50.966;6.878;2023-04-24T09:24:59;22.70;;;11.37;;
43529;SDS011;55654;50.966;6.878;2023-04-24T09:27:33;21.77;;;10.87;;
43529;SDS011;55654;50.966;6.878;2023-04-24T09:30:06;23.87;;;11.37;;
43529;SDS011;55654;50.966;6.878;2023-04-24T09:32:42;19.27;;;12.40;;
43529;SDS011;55654;50.966;6.878;2023-04-24T09:35:12;24.03;;;13.37;;
43529;SDS011;55654;50.966;6.878;2023-04-24T09:37:39;29.23;;;13.30;;
43529;SDS011;55654;50.966;6.878;2023-04-24T09:40:09;23.83;;;13.17;;
43529;SDS011;55654;50.966;6.878;2023-04-24T09:42:43;25.87;;;13.63;;
43529;SDS011;55654;50.966;6.878;2023-04-24T09:45:10;27.57;;;14.07;;
43529;SDS011;55654;50.966;6.878;2023-04-24T09:47:37;35.03;;;13.87;;
43529;SDS011;55654;50.966;6.878;2023-04-24T09:50:10;34.17;;;13.53;;
43529;SDS011;55654;50.966;6.878;2023-04-24T09:52:39;28.07;;;14.00;;
43529;SDS011;55654;50.966;6.878;2023-04-24T09:58:07;28.60;;;13.63;;
43529;SDS011;55654;50.966;6.878;2023-04-24T10:00:36;28.27;;;12.57;;
43529;SDS011;55654;50.966;6.878;2023-04-24T10:03:03;20.23;;;11.77;;
43529;SDS011;55654;50.966;6.878;2023-04-24T10:05:35;20.77;;;11.33;;
43529;SDS011;55654;50.966;6.878;2023-04-24T10:08:03;18.80;;;11.00;;
43529;SDS011;55654;50.966;6.878;2023-04-24T10:10:38;26.27;;;10.07;;
43529;SDS011;55654;50.966;6.878;2023-04-24T10:13:04;19.73;;;9.83;;
43529;SDS011;55654;50.966;6.878;2023-04-24T10:15:31;20.00;;;10.40;;
43529;SDS011;55654;50.966;6.878;2023-04-24T10:17:58;24.40;;;9.67;;
43529;SDS011;55654;50.966;6.878;2023-04-24T10:20:27;18.03;;;8.20;;
43529;SDS011;55654;50.966;6.878;2023-04-24T10:22:57;21.87;;;7.77;;
43529;SDS011;55654;50.966;6.878;2023-04-24T10:25:34;17.77;;;6.23;;
43529;SDS011;55654;50.966;6.878;2023-04-24T10:28:01;17.63;;;8.17;;
43529;SDS011;55654;50.966;6.878;2023-04-24T10:30:28;21.80;;;7.87;;
43529;SDS011;55654;50.966;6.878;2023-04-24T10:32:55;23.53;;;7.23;;
43529;SDS011;55654;50.966;6.878;2023-04-24T10:35:24;21.63;;;7.90;;
43529;SDS011;55654;50.966;6.878;2023-04-24T10:37:54;19.30;;;6.53;;
43529;SDS011;55654;50.966;6.878;2023-04-24T10:40:30;12.60;;;6.00;;
43529;SDS011;55654;50.966;6.878;2023-04-24T10:43:02;14.17;;;5.80;;
43529;SDS011;55654;50.966;6.878;2023-04-24T10:45:33;15.47;;;5.77;;
43529;SDS011;55654;50.966;6.878;2023-04-24T10:48:03;15.33;;;6.33;;
43529;SDS011;55654;50.966;6.878;2023-04-24T10:53:15;15.37;;;6.13;;
43529;SDS011;55654;50.966;6.878;2023-04-24T10:58:08;14.57;;;6.17;;
43529;SDS011;55654;50.966;6.878;2023-04-24T11:00:38;16.50;;;7.90;;
43529;SDS011;55654;50.966;6.878;2023-04-24T11:03:28;21.67;;;6.55;;
43529;SDS011;55654;50.966;6.878;2023-04-24T11:10:58;23.40;;;9.00;;
43529;SDS011;55654;50.966;6.878;2023-04-24T11:21:46;25.15;;;9.85;;
43529;SDS011;55654;50.966;6.878;2023-04-24T11:24:32;17.93;;;9.83;;
43529;SDS011;55654;50.966;6.878;2023-04-24T11:27:12;23.23;;;9.27;;
43529;SDS011;55654;50.966;6.878;2023-04-24T11:29:49;29.47;;;9.70;;
43529;SDS011;55654;50.966;6.878;2023-04-24T11:32:36;14.40;;;7.73;;
43529;SDS011;55654;50.966;6.878;2023-04-24T11:37:35;18.63;;;6.90;;
43529;SDS011;55654;50.966;6.878;2023-04-24T11:40:07;20.60;;;8.70;;
43529;SDS011;55654;50.966;6.878;2023-04-24T11:42:52;15.63;;;7.43;;
43529;SDS011;55654;50.966;6.878;2023-04-24T11:45:27;22.60;;;9.17;;
43529;SDS011;55654;50.966;6.878;2023-04-24T11:47:53;19.20;;;9.70;;
43529;SDS011;55654;50.966;6.878;2023-04-24T11:50:22;24.37;;;9.90;;
43529;SDS011;55654;50.966;6.878;2023-04-24T11:52:56;30.90;;;10.83;;
43529;SDS011;55654;50.966;6.878;2023-04-24T11:55:23;27.37;;;11.43;;
43529;SDS011;55654;50.966;6.878;2023-04-24T11:57:56;29.57;;;9.93;;
43529;SDS011;55654;50.966;6.878;2023-04-24T12:00:26;24.03;;;9.97;;
43529;SDS011;55654;50.966;6.878;2023-04-24T12:03:02;16.13;;;9.23;;
43529;SDS011;55654;50.966;6.878;2023-04-24T12:05:29;20.40;;;9.23;;
43529;SDS011;55654;50.966;6.878;2023-04-24T12:07:58;24.40;;;9.40;;
43529;SDS011;55654;50.966;6.878;2023-04-24T12:10:25;21.23;;;9.80;;
43529;SDS011;55654;50.966;6.878;2023-04-24T12:12:55;17.37;;;7.47;;
43529;SDS011;55654;50.966;6.878;2023-04-24T12:15:21;15.43;;;7.90;;
43529;SDS011;55654;50.966;6.878;2023-04-24T12:17:48;13.97;;;7.40;;
43529;SDS011;55654;50.966;6.878;2023-04-24T12:20:23;28.73;;;9.37;;
43529;SDS011;55654;50.966;6.878;2023-04-24T12:22:55;21.27;;;8.40;;
43529;SDS011;55654;50.966;6.878;2023-04-24T12:25:24;20.77;;;8.10;;
43529;SDS011;55654;50.966;6.878;2023-04-24T12:28:14;18.17;;;8.57;;
43529;SDS011;55654;50.966;6.878;2023-04-24T12:30:43;14.07;;;6.40;;
43529;SDS011;55654;50.966;6.878;2023-04-24T12:33:18;17.00;;;6.40;;
43529;SDS011;55654;50.966;6.878;2023-04-24T12:35:45;14.70;;;6.93;;
43529;SDS011;55654;50.966;6.878;2023-04-24T12:38:12;24.13;;;6.73;;
43529;SDS011;55654;50.966;6.878;2023-04-24T12:40:39;17.13;;;6.10;;
43529;SDS011;55654;50.966;6.878;2023-04-24T12:43:17;15.20;;;6.20;;
43529;SDS011;55654;50.966;6.878;2023-04-24T12:45:45;21.63;;;6.50;;
43529;SDS011;55654;50.966;6.878;2023-04-24T12:48:14;18.77;;;5.70;;
43529;SDS011;55654;50.966;6.878;2023-04-24T12:50:40;14.10;;;5.50;;
43529;SDS011;55654;50.966;6.878;2023-04-24T12:53:08;17.17;;;5.77;;
43529;SDS011;55654;50.966;6.878;2023-04-24T12:55:36;16.17;;;6.03;;
43529;SDS011;55654;50.966;6.878;2023-04-24T12:58:03;19.37;;;5.40;;
43529;SDS011;55654;50.966;6.878;2023-04-24T13:00:31;22.77;;;6.03;;
43529;SDS011;55654;50.966;6.878;2023-04-24T13:02:58;16.53;;;5.47;;
43529;SDS011;55654;50.966;6.878;2023-04-24T13:05:27;11.83;;;5.53;;
43529;SDS011;55654;50.966;6.878;2023-04-24T13:07:53;14.63;;;5.60;;
43529;SDS011;55654;50.966;6.878;2023-04-24T13:10:19;12.40;;;5.97;;
43529;SDS011;55654;50.966;6.878;2023-04-24T13:12:45;17.43;;;5.90;;
43529;SDS011;55654;50.966;6.878;2023-04-24T13:15:11;13.73;;;6.57;;
43529;SDS011;55654;50.966;6.878;2023-04-24T13:17:40;11.10;;;6.47;;
43529;SDS011;55654;50.966;6.878;2023-04-24T13:20:08;20.07;;;6.40;;
43529;SDS011;55654;50.966;6.878;2023-04-24T13:22:35;13.17;;;6.27;;
43529;SDS011;55654;50.966;6.878;2023-04-24T13:25:04;11.17;;;4.70;;
43529;SDS011;55654;50.966;6.878;2023-04-24T13:27:50;15.00;;;5.70;;
43529;SDS011;55654;50.966;6.878;2023-04-24T13:30:18;10.83;;;4.97;;
43529;SDS011;55654;50.966;6.878;2023-04-24T13:32:46;13.30;;;5.57;;
43529;SDS011;55654;50.966;6.878;2023-04-24T13:35:20;16.63;;;5.23;;
43529;SDS011;55654;50.966;6.878;2023-04-24T13:37:46;15.03;;;4.40;;
43529;SDS011;55654;50.966;6.878;2023-04-24T13:40:17;11.10;;;4.67;;
43529;SDS011;55654;50.966;6.878;2023-04-24T13:42:49;17.63;;;5.33;;
43529;SDS011;55654;50.966;6.878;2023-04-24T13:45:15;17.00;;;4.83;;
43529;SDS011;55654;50.966;6.878;2023-04-24T13:47:46;10.57;;;5.13;;
43529;SDS011;55654;50.966;6.878;2023-04-24T13:50:12;17.17;;;4.90;;
43529;SDS011;55654;50.966;6.878;2023-04-24T13:52:39;12.57;;;4.83;;
43529;SDS011;55654;50.966;6.878;2023-04-24T13:55:05;13.40;;;5.33;;
43529;SDS011;55654;50.966;6.878;2023-04-24T13:57:36;13.40;;;5.10;;
43529;SDS011;55654;50.966;6.878;2023-04-24T14:00:08;10.40;;;3.60;;
43529;SDS011;55654;50.966;6.878;2023-04-24T14:02:41;7.93;;;3.23;;
43529;SDS011;55654;50.966;6.878;2023-04-24T14:05:07;8.00;;;3.53;;
43529;SDS011;55654;50.966;6.878;2023-04-24T14:07:39;10.27;;;3.55;;
43529;SDS011;55654;50.966;6.878;2023-04-24T14:10:08;11.07;;;3.90;;
43529;SDS011;55654;50.966;6.878;2023-04-24T14:12:37;7.73;;;3.00;;
43529;SDS011;55654;50.966;6.878;2023-04-24T14:15:13;11.03;;;3.77;;
43529;SDS011;55654;50.966;6.878;2023-04-24T14:17:40;12.47;;;3.80;;
43529;SDS011;55654;50.966;6.878;2023-04-24T14:20:06;11.67;;;4.53;;
43529;SDS011;55654;50.966;6.878;2023-04-24T14:22:40;11.18;;;4.50;;
43529;SDS011;55654;50.966;6.878;2023-04-24T14:25:09;9.83;;;4.73;;
43529;SDS011;55654;50.966;6.878;2023-04-24T14:27:37;12.97;;;4.90;;
43529;SDS011;55654;50.966;6.878;2023-04-24T14:30:03;8.17;;;4.37;;
43529;SDS011;55654;50.966;6.878;2023-04-24T14:32:40;9.23;;;4.47;;
43529;SDS011;55654;50.966;6.878;2023-04-24T14:35:06;15.17;;;4.43;;
43529;SDS011;55654;50.966;6.878;2023-04-24T14:37:35;9.90;;;4.93;;
43529;SDS011;55654;50.966;6.878;2023-04-24T14:40:02;10.03;;;4.77;;
43529;SDS011;55654;50.966;6.878;2023-04-24T14:42:32;15.13;;;5.00;;
43529;SDS011;55654;50.966;6.878;2023-04-24T14:44:58;8.43;;;4.47;;
43529;SDS011;55654;50.966;6.878;2023-04-24T14:47:24;10.50;;;4.27;;
43529;SDS011;55654;50.966;6.878;2023-04-24T14:49:50;9.53;;;4.23;;
43529;SDS011;55654;50.966;6.878;2023-04-24T14:52:19;9.17;;;3.93;;
43529;SDS011;55654;50.966;6.878;2023-04-24T14:54:56;9.63;;;3.97;;
43529;SDS011;55654;50.966;6.878;2023-04-24T14:57:28;10.37;;;3.50;;
43529;SDS011;55654;50.966;6.878;2023-04-24T14:59:56;11.03;;;3.40;;
43529;SDS011;55654;50.966;6.878;2023-04-24T15:02:25;8.97;;;3.37;;
43529;SDS011;55654;50.966;6.878;2023-04-24T15:04:51;6.17;;;3.03;;
43529;SDS011;55654;50.966;6.878;2023-04-24T15:07:21;5.93;;;3.13;;
43529;SDS011;55654;50.966;6.878;2023-04-24T15:09:54;8.13;;;3.60;;
43529;SDS011;55654;50.966;6.878;2023-04-24T15:12:38;8.60;;;3.33;;
43529;SDS011;55654;50.966;6.878;2023-04-24T15:15:11;7.77;;;2.93;;
43529;SDS011;55654;50.966;6.878;2023-04-24T15:17:40;6.53;;;2.80;;
43529;SDS011;55654;50.966;6.878;2023-04-24T15:20:08;9.60;;;3.30;;
43529;SDS011;55654;50.966;6.878;2023-04-24T15:22:34;5.87;;;3.23;;
43529;SDS011;55654;50.966;6.878;2023-04-24T15:25:05;10.23;;;3.53;;